createdAt,value
2019-03-15T00:00:24.901Z,7.93
2019-03-15T00:02:52.747Z,5.50
2019-03-15T00:05:21.373Z,6.60
2019-03-15T00:07:49.130Z,5.87
2019-03-15T00:10:17.282Z,10.53
2019-03-15T00:12:44.872Z,4.57
2019-03-15T00:15:12.610Z,6.80
2019-03-15T00:17:40.025Z,9.50
2019-03-15T00:20:07.488Z,9.33
2019-03-15T00:22:34.715Z,6.83
2019-03-15T00:25:02.637Z,6.53
2019-03-15T00:27:30.410Z,8.47
2019-03-15T00:29:58.237Z,7.50
2019-03-15T00:32:25.265Z,7.80
2019-03-15T00:34:52.366Z,8.67
2019-03-15T00:37:20.387Z,8.20
2019-03-15T00:39:47.664Z,6.73
2019-03-15T00:42:14.980Z,10.90
2019-03-15T00:44:42.477Z,7.73
2019-03-15T00:47:09.845Z,10.20
2019-03-15T00:49:37.617Z,7.67
2019-03-15T00:52:04.917Z,7.27
2019-03-15T00:54:33.834Z,7.07
2019-03-15T00:57:01.392Z,8.50
2019-03-15T00:59:28.840Z,7.83
2019-03-15T01:01:56.601Z,9.77
2019-03-15T01:04:23.953Z,11.53
2019-03-15T01:06:51.497Z,8.87
2019-03-15T01:09:18.429Z,9.23
2019-03-15T01:11:45.897Z,8.63
2019-03-15T01:14:13.093Z,6.67
2019-03-15T01:16:40.612Z,8.17
2019-03-15T01:19:07.558Z,7.70
2019-03-15T01:21:34.461Z,5.33
2019-03-15T01:24:02.069Z,7.53
2019-03-15T01:26:30.613Z,6.97
2019-03-15T01:28:57.895Z,7.17
2019-03-15T01:31:26.032Z,8.90
2019-03-15T01:33:52.992Z,7.73
2019-03-15T01:36:20.241Z,7.03
2019-03-15T01:38:47.713Z,8.43
2019-03-15T01:41:14.820Z,9.50
2019-03-15T01:43:41.784Z,6.53
2019-03-15T01:46:08.962Z,11.20
2019-03-15T01:48:36.700Z,11.80
2019-03-15T01:51:03.719Z,8.73
2019-03-15T01:53:31.037Z,9.50
2019-03-15T01:56:00.051Z,8.60
2019-03-15T01:58:27.425Z,8.47
2019-03-15T02:00:55.313Z,8.80
2019-03-15T02:03:22.213Z,8.80
2019-03-15T02:05:49.421Z,7.63
2019-03-15T02:08:16.938Z,12.20
2019-03-15T02:10:44.141Z,7.70
2019-03-15T02:13:11.809Z,7.27
2019-03-15T02:15:39.061Z,10.97
2019-03-15T02:18:06.308Z,10.80
2019-03-15T02:20:33.719Z,9.87
2019-03-15T02:23:02.452Z,10.83
2019-03-15T02:25:29.830Z,9.80
2019-03-15T02:27:57.169Z,9.90
2019-03-15T02:30:25.545Z,11.23
2019-03-15T02:32:53.173Z,10.30
2019-03-15T02:35:21.285Z,8.63
2019-03-15T02:37:48.531Z,9.10
2019-03-15T02:40:15.928Z,14.03
2019-03-15T02:42:43.569Z,9.80
2019-03-15T02:45:12.035Z,11.33
2019-03-15T02:47:40.206Z,11.17
2019-03-15T02:50:07.309Z,7.90
2019-03-15T02:52:34.654Z,11.43
2019-03-15T02:55:01.897Z,14.33
2019-03-15T02:57:29.226Z,12.23
2019-03-15T02:59:56.681Z,12.97
2019-03-15T03:02:24.294Z,12.30
2019-03-15T03:04:52.074Z,10.43
2019-03-15T03:07:21.052Z,13.77
2019-03-15T03:09:48.217Z,13.43
2019-03-15T03:12:16.775Z,14.57
2019-03-15T03:14:44.635Z,12.77
2019-03-15T03:17:13.002Z,11.17
2019-03-15T03:19:41.274Z,12.10
2019-03-15T03:22:09.259Z,15.20
2019-03-15T03:24:36.467Z,9.10
2019-03-15T03:27:04.236Z,13.43
2019-03-15T03:29:53.182Z,14.97
2019-03-15T03:32:42.912Z,11.37
2019-03-15T03:35:10.064Z,11.07
2019-03-15T03:37:38.401Z,13.30
2019-03-15T03:40:05.494Z,12.83
2019-03-15T03:42:32.910Z,14.97
2019-03-15T03:45:00.701Z,12.40
2019-03-15T03:47:27.640Z,12.20
2019-03-15T03:49:55.076Z,12.10
2019-03-15T03:52:22.168Z,14.57
2019-03-15T03:54:49.298Z,13.17
2019-03-15T03:57:17.170Z,13.33
2019-03-15T03:59:45.463Z,11.03
2019-03-15T04:02:12.725Z,11.20
2019-03-15T04:04:40.224Z,11.33
2019-03-15T04:07:07.358Z,12.20
2019-03-15T04:09:34.472Z,10.07
2019-03-15T04:12:03.029Z,13.43
2019-03-15T04:14:30.673Z,8.57
2019-03-15T04:16:58.384Z,11.37
2019-03-15T04:19:25.973Z,13.00
2019-03-15T04:21:52.999Z,11.97
2019-03-15T04:24:20.383Z,12.40
2019-03-15T04:26:47.662Z,11.77
2019-03-15T04:29:14.593Z,10.60
2019-03-15T04:31:42.569Z,11.03
2019-03-15T04:34:09.817Z,12.33
2019-03-15T04:36:49.315Z,12.83
2019-03-15T04:39:18.630Z,14.77
2019-03-15T04:41:46.365Z,11.50
2019-03-15T04:44:13.384Z,15.03
2019-03-15T04:46:41.157Z,14.27
2019-03-15T04:49:09.120Z,13.43
2019-03-15T04:51:36.231Z,14.57
2019-03-15T04:54:05.623Z,13.67
2019-03-15T04:56:33.784Z,13.67
2019-03-15T04:59:01.284Z,26.27
2019-03-15T05:01:28.893Z,29.47
2019-03-15T05:03:56.179Z,15.20
2019-03-15T05:06:23.836Z,19.50
2019-03-15T05:08:51.432Z,13.50
2019-03-15T05:11:18.836Z,16.07
2019-03-15T05:13:46.379Z,14.87
2019-03-15T05:16:15.028Z,14.27
2019-03-15T05:18:42.385Z,17.43
2019-03-15T05:21:09.803Z,12.47
2019-03-15T05:23:36.977Z,18.70
2019-03-15T05:26:04.384Z,22.07
2019-03-15T05:28:31.933Z,19.23
2019-03-15T05:30:59.440Z,19.97
2019-03-15T05:33:26.405Z,18.87
2019-03-15T05:35:53.668Z,23.53
2019-03-15T05:38:21.233Z,17.53
2019-03-15T05:40:49.062Z,21.67
2019-03-15T05:43:16.420Z,19.27
2019-03-15T05:45:43.466Z,17.40
2019-03-15T05:48:10.781Z,19.57
2019-03-15T05:50:40.691Z,22.00
2019-03-15T05:53:08.116Z,16.80
2019-03-15T05:55:36.596Z,16.47
2019-03-15T05:58:04.268Z,18.33
2019-03-15T06:00:31.305Z,20.83
2019-03-15T06:02:58.997Z,15.60
2019-03-15T06:05:26.420Z,15.43
2019-03-15T06:07:53.880Z,16.10
2019-03-15T06:10:21.300Z,15.67
2019-03-15T06:12:49.904Z,17.30
2019-03-15T06:15:16.845Z,16.70
2019-03-15T06:17:44.098Z,17.93
2019-03-15T06:20:11.501Z,15.60
2019-03-15T06:22:38.747Z,18.33
2019-03-15T06:25:06.190Z,18.53
2019-03-15T06:27:33.321Z,11.17
2019-03-15T06:30:00.633Z,19.67
2019-03-15T06:32:27.880Z,15.33
2019-03-15T06:34:55.296Z,12.03
2019-03-15T06:37:22.700Z,16.73
2019-03-15T06:39:49.617Z,18.33
2019-03-15T06:42:16.869Z,12.53
2019-03-15T06:44:57.093Z,15.97
2019-03-15T06:47:13.240Z,16.30
2019-03-15T06:49:40.460Z,13.67
2019-03-15T06:52:07.639Z,14.93
2019-03-15T06:54:34.893Z,13.57
2019-03-15T06:57:01.892Z,10.70
2019-03-15T06:59:29.297Z,13.03
2019-03-15T07:01:56.576Z,9.47
2019-03-15T07:04:24.228Z,9.73
2019-03-15T07:06:51.400Z,12.90
2019-03-15T07:09:18.565Z,12.57
2019-03-15T07:11:45.990Z,11.30
2019-03-15T07:14:14.068Z,12.77
2019-03-15T07:16:41.630Z,12.17
2019-03-15T07:19:08.765Z,13.73
2019-03-15T07:21:36.917Z,13.93
2019-03-15T07:24:04.214Z,13.43
2019-03-15T07:26:31.892Z,12.23
2019-03-15T07:28:59.059Z,11.93
2019-03-15T07:31:26.267Z,11.60
2019-03-15T07:33:54.601Z,12.50
2019-03-15T07:36:23.366Z,13.27
2019-03-15T07:38:50.749Z,9.20
2019-03-15T07:41:17.826Z,10.57
2019-03-15T07:43:45.545Z,10.57
2019-03-15T07:46:13.233Z,11.20
2019-03-15T07:48:40.869Z,10.20
2019-03-15T07:51:07.936Z,15.90
2019-03-15T07:53:35.721Z,12.33
2019-03-15T07:56:05.133Z,12.20
2019-03-15T07:58:32.096Z,11.83
2019-03-15T08:00:59.769Z,9.77
2019-03-15T08:03:26.796Z,13.83
2019-03-15T08:05:54.110Z,8.90
2019-03-15T08:08:21.597Z,10.13
2019-03-15T08:10:49.248Z,13.23
2019-03-15T08:13:16.405Z,11.07
2019-03-15T08:15:43.606Z,11.07
2019-03-15T08:18:10.610Z,12.00
2019-03-15T08:20:38.621Z,13.23
2019-03-15T08:23:08.428Z,10.70
2019-03-15T08:25:36.207Z,7.20
2019-03-15T08:28:03.696Z,9.07
2019-03-15T08:30:30.930Z,9.00
2019-03-15T08:33:09.604Z,8.37
2019-03-15T08:35:28.312Z,8.43
2019-03-15T08:37:56.405Z,8.87
2019-03-15T08:40:25.820Z,7.87
2019-03-15T08:42:53.973Z,6.33
2019-03-15T08:45:21.725Z,8.40
2019-03-15T08:47:48.905Z,6.90
2019-03-15T08:50:15.969Z,7.87
2019-03-15T08:52:43.628Z,9.37
2019-03-15T08:55:11.176Z,8.30
2019-03-15T08:57:38.674Z,8.20
2019-03-15T09:00:07.265Z,6.83
2019-03-15T09:02:34.957Z,7.00
2019-03-15T09:05:02.068Z,4.63
2019-03-15T09:07:29.812Z,6.90
2019-03-15T09:09:56.766Z,7.13
2019-03-15T09:12:24.202Z,6.27
2019-03-15T09:14:51.842Z,5.27
2019-03-15T09:17:20.194Z,6.53
2019-03-15T09:19:47.512Z,5.33
2019-03-15T09:22:15.241Z,4.93
2019-03-15T09:24:43.381Z,5.87
2019-03-15T09:27:10.808Z,5.07
2019-03-15T09:29:39.201Z,4.40
2019-03-15T09:32:09.190Z,5.20
2019-03-15T09:34:35.716Z,4.80
2019-03-15T09:37:03.289Z,4.73
2019-03-15T09:39:30.373Z,5.93
2019-03-15T09:41:58.526Z,4.53
2019-03-15T09:44:26.448Z,5.53
2019-03-15T09:46:53.986Z,4.37
2019-03-15T09:49:21.277Z,4.57
2019-03-15T09:51:48.964Z,3.53
2019-03-15T09:54:16.218Z,4.67
2019-03-15T09:56:44.240Z,3.83
2019-03-15T09:59:11.973Z,3.40
2019-03-15T10:01:39.220Z,4.90
2019-03-15T10:04:06.612Z,2.10
2019-03-15T10:06:33.993Z,1.97
2019-03-15T10:09:01.833Z,2.23
2019-03-15T10:11:33.985Z,1.60
2019-03-15T10:14:02.517Z,2.93
2019-03-15T10:16:30.418Z,1.57
2019-03-15T10:18:57.668Z,1.97
2019-03-15T10:21:24.883Z,1.90
2019-03-15T10:23:53.653Z,2.07
2019-03-15T10:26:20.906Z,1.47
2019-03-15T10:28:48.362Z,1.40
2019-03-15T10:31:15.640Z,2.10
2019-03-15T10:33:50.333Z,1.77
2019-03-15T10:36:12.584Z,1.50
2019-03-15T10:38:39.849Z,1.30
2019-03-15T10:41:07.065Z,2.00
2019-03-15T10:43:35.223Z,1.47
2019-03-15T10:46:05.884Z,2.37
2019-03-15T10:48:32.543Z,1.60
2019-03-15T10:50:59.569Z,2.03
2019-03-15T10:53:27.229Z,1.63
2019-03-15T10:56:00.226Z,1.53
2019-03-15T10:58:23.744Z,1.20
2019-03-15T11:00:51.101Z,2.63
2019-03-15T11:03:18.401Z,1.10
2019-03-15T11:05:45.856Z,0.90
2019-03-15T11:08:12.917Z,1.87
2019-03-15T11:10:40.157Z,1.20
2019-03-15T11:13:07.234Z,0.80
2019-03-15T11:15:34.969Z,0.77
2019-03-15T11:18:02.346Z,0.63
2019-03-15T11:20:30.188Z,1.03
2019-03-15T11:22:57.365Z,0.93
2019-03-15T11:25:24.425Z,1.13
2019-03-15T11:30:25.676Z,0.70
2019-03-15T11:32:52.853Z,1.00
2019-03-15T11:35:21.531Z,0.80
2019-03-15T11:37:48.781Z,0.87
2019-03-15T11:40:18.936Z,0.67
2019-03-15T11:42:45.397Z,0.90
2019-03-15T11:45:12.880Z,0.77
2019-03-15T11:48:01.463Z,1.53
2019-03-15T11:50:09.270Z,1.47
2019-03-15T11:52:36.901Z,0.70
2019-03-15T11:55:04.891Z,0.70
2019-03-15T11:57:32.668Z,1.23
2019-03-15T11:59:59.816Z,0.80
2019-03-15T12:02:27.156Z,0.90
2019-03-15T12:04:54.585Z,0.70
2019-03-15T12:07:21.838Z,1.07
2019-03-15T12:09:48.765Z,0.83
2019-03-15T12:12:16.696Z,1.13
2019-03-15T12:14:43.782Z,0.80
2019-03-15T12:17:11.065Z,1.27
2019-03-15T12:19:39.440Z,0.70
2019-03-15T12:22:06.988Z,1.00
2019-03-15T12:24:53.980Z,1.40
2019-03-15T12:27:20.917Z,0.97
2019-03-15T12:29:48.145Z,0.63
2019-03-15T12:32:15.667Z,0.83
2019-03-15T12:34:43.034Z,0.63
2019-03-15T12:37:10.458Z,1.80
2019-03-15T12:39:37.784Z,0.70
2019-03-15T12:42:05.273Z,0.80
2019-03-15T12:44:32.789Z,0.93
2019-03-15T12:47:00.489Z,2.50
2019-03-15T12:49:27.920Z,0.90
2019-03-15T12:51:55.712Z,0.60
2019-03-15T12:54:23.294Z,1.00
2019-03-15T12:56:53.935Z,1.10
2019-03-15T12:59:20.144Z,0.83
2019-03-15T13:01:48.426Z,0.60
2019-03-15T13:04:15.397Z,1.03
2019-03-15T13:06:54.957Z,1.37
2019-03-15T13:09:24.608Z,1.13
2019-03-15T13:11:51.564Z,1.10
2019-03-15T13:14:18.785Z,0.80
2019-03-15T13:16:45.740Z,1.03
2019-03-15T13:19:12.749Z,0.70
2019-03-15T13:21:40.273Z,1.57
2019-03-15T13:24:07.776Z,0.70
2019-03-15T13:26:35.581Z,1.07
2019-03-15T13:29:02.570Z,0.77
2019-03-15T13:31:30.246Z,1.80
2019-03-15T13:34:01.215Z,0.70
2019-03-15T13:36:28.496Z,0.90
2019-03-15T13:38:55.968Z,0.63
2019-03-15T13:41:23.238Z,1.50
2019-03-15T13:43:50.264Z,1.17
2019-03-15T13:46:17.450Z,0.50
2019-03-15T13:48:44.921Z,0.90
2019-03-15T13:51:12.404Z,0.47
2019-03-15T13:53:39.983Z,2.10
2019-03-15T13:56:07.840Z,1.20
2019-03-15T13:58:35.496Z,0.70
2019-03-15T14:01:02.780Z,1.00
2019-03-15T14:03:30.394Z,0.93
2019-03-15T14:05:57.768Z,2.13
2019-03-15T14:08:25.473Z,1.20
2019-03-15T14:10:52.735Z,4.70
2019-03-15T14:13:21.303Z,3.30
2019-03-15T14:15:48.964Z,0.70
2019-03-15T14:18:16.485Z,0.70
2019-03-15T14:20:43.539Z,0.73
2019-03-15T14:23:11.063Z,1.00
2019-03-15T14:25:38.409Z,0.60
2019-03-15T14:28:05.349Z,0.80
2019-03-15T14:30:33.493Z,1.83
2019-03-15T14:33:00.860Z,1.87
2019-03-15T14:35:28.391Z,1.07
2019-03-15T14:37:55.838Z,1.70
2019-03-15T14:40:22.839Z,2.43
2019-03-15T14:42:50.273Z,0.80
2019-03-15T14:45:17.680Z,0.80
2019-03-15T14:47:45.692Z,1.20
2019-03-15T14:50:13.078Z,0.90
2019-03-15T14:52:40.312Z,1.83
2019-03-15T14:55:07.846Z,1.27
2019-03-15T14:57:35.605Z,1.50
2019-03-15T15:00:03.373Z,1.27
2019-03-15T15:02:32.277Z,2.13
2019-03-15T15:05:00.361Z,1.60
2019-03-15T15:07:27.922Z,1.63
2019-03-15T15:09:55.557Z,1.40
2019-03-15T15:12:23.401Z,1.10
2019-03-15T15:14:50.869Z,1.30
2019-03-15T15:17:18.492Z,1.40
2019-03-15T15:19:45.449Z,2.07
2019-03-15T15:22:12.576Z,1.20
2019-03-15T15:24:39.784Z,1.50
2019-03-15T15:27:07.472Z,2.30
2019-03-15T15:29:34.948Z,1.10
2019-03-15T15:32:02.117Z,2.83
2019-03-15T15:34:29.841Z,1.43
2019-03-15T15:36:57.549Z,1.93
2019-03-15T15:39:25.682Z,1.73
2019-03-15T15:41:52.952Z,1.30
2019-03-15T15:44:20.276Z,1.20
2019-03-15T15:46:47.204Z,1.17
2019-03-15T15:49:14.865Z,0.90
2019-03-15T15:51:42.496Z,1.07
2019-03-15T15:54:09.699Z,0.87
2019-03-15T15:56:37.129Z,1.10
2019-03-15T15:59:04.337Z,0.90
2019-03-15T16:01:31.947Z,0.80
2019-03-15T16:03:58.908Z,1.77
2019-03-15T16:06:26.568Z,1.30
2019-03-15T16:08:54.029Z,1.50
2019-03-15T16:11:21.010Z,1.33
2019-03-15T16:13:48.537Z,1.00
2019-03-15T16:16:15.557Z,2.30
2019-03-15T16:18:42.854Z,1.83
2019-03-15T16:21:12.036Z,1.30
2019-03-15T16:23:39.477Z,1.53
2019-03-15T16:26:06.862Z,1.30
2019-03-15T16:28:36.191Z,1.50
2019-03-15T16:31:03.861Z,1.30
2019-03-15T16:33:31.679Z,1.20
2019-03-15T16:35:58.861Z,1.30
2019-03-15T16:38:26.584Z,1.37
2019-03-15T16:40:53.787Z,2.23
2019-03-15T16:43:21.449Z,3.50
2019-03-15T16:45:49.788Z,1.30
2019-03-15T16:48:17.368Z,2.00
2019-03-15T16:50:45.048Z,1.70
2019-03-15T16:53:12.465Z,2.20
2019-03-15T16:55:39.912Z,1.90
2019-03-15T16:58:07.212Z,1.70
2019-03-15T17:00:34.526Z,2.23
2019-03-15T17:03:01.980Z,1.33
2019-03-15T17:05:29.786Z,1.60
2019-03-15T17:07:57.313Z,1.33
2019-03-15T17:10:25.700Z,1.40
2019-03-15T17:12:55.610Z,1.70
2019-03-15T17:15:21.968Z,2.10
2019-03-15T17:17:49.105Z,1.77
2019-03-15T17:20:16.837Z,1.80
2019-03-15T17:22:44.478Z,2.40
2019-03-15T17:25:11.696Z,2.30
2019-03-15T17:27:39.244Z,2.80
2019-03-15T17:30:09.149Z,2.73
2019-03-15T17:32:36.712Z,2.20
2019-03-15T17:35:04.365Z,2.47
2019-03-15T17:37:31.373Z,2.47
2019-03-15T17:39:58.664Z,3.53
2019-03-15T17:42:26.149Z,2.17
2019-03-15T17:44:53.676Z,2.27
2019-03-15T17:47:21.517Z,2.20
2019-03-15T17:49:48.917Z,2.07
2019-03-15T17:52:16.292Z,2.30
2019-03-15T17:54:43.689Z,2.73
2019-03-15T17:57:11.003Z,2.70
2019-03-15T17:59:40.225Z,1.97
2019-03-15T18:02:07.876Z,1.90
2019-03-15T18:04:35.369Z,2.30
2019-03-15T18:07:03.177Z,2.57
2019-03-15T18:09:30.350Z,2.60
2019-03-15T18:11:57.403Z,2.57
2019-03-15T18:14:24.822Z,2.30
2019-03-15T18:16:52.519Z,2.37
2019-03-15T18:19:20.260Z,1.90
2019-03-15T18:21:47.814Z,2.20
2019-03-15T18:24:15.657Z,2.10
2019-03-15T18:26:43.693Z,1.77
2019-03-15T18:29:10.828Z,2.23
2019-03-15T18:31:38.061Z,1.70
2019-03-15T18:34:05.143Z,1.70
2019-03-15T18:36:32.687Z,1.70
2019-03-15T18:39:00.157Z,1.70
2019-03-15T18:41:27.890Z,2.03
2019-03-15T18:43:55.180Z,1.70
2019-03-15T18:46:22.340Z,1.90
2019-03-15T18:48:49.372Z,1.57
2019-03-15T18:51:16.860Z,1.43
2019-03-15T18:53:44.445Z,1.50
2019-03-15T18:56:12.869Z,1.77
2019-03-15T18:58:39.908Z,1.40
2019-03-15T19:01:07.524Z,1.90
2019-03-15T19:03:35.251Z,1.33
2019-03-15T19:06:02.628Z,1.50
2019-03-15T19:08:30.105Z,1.60
2019-03-15T19:10:57.553Z,2.40
2019-03-15T19:13:25.352Z,1.40
2019-03-15T19:15:52.552Z,1.40
2019-03-15T19:18:19.787Z,2.27
2019-03-15T19:20:47.431Z,1.50
2019-03-15T19:23:14.968Z,1.40
2019-03-15T19:25:42.481Z,1.30
2019-03-15T19:28:09.416Z,1.20
2019-03-15T19:30:37.061Z,1.73
2019-03-15T19:33:05.065Z,1.47
2019-03-15T19:35:32.676Z,1.30
2019-03-15T19:38:00.681Z,2.33
2019-03-15T19:40:27.848Z,1.83
2019-03-15T19:42:55.314Z,2.10
2019-03-15T19:45:22.408Z,1.73
2019-03-15T19:47:49.548Z,1.80
2019-03-15T19:50:17.180Z,2.33
2019-03-15T19:52:44.784Z,1.50
2019-03-15T19:55:12.108Z,2.40
2019-03-15T19:57:39.241Z,2.20
2019-03-15T20:00:08.853Z,2.07
2019-03-15T20:02:36.432Z,2.20
2019-03-15T20:05:04.077Z,1.30
2019-03-15T20:07:32.365Z,1.30
2019-03-15T20:10:00.383Z,1.60
2019-03-15T20:12:28.096Z,1.60
2019-03-15T20:14:55.220Z,1.30
2019-03-15T20:17:22.478Z,1.40
2019-03-15T20:19:50.127Z,1.30
2019-03-15T20:22:17.072Z,1.83
2019-03-15T20:24:45.273Z,1.30
2019-03-15T20:27:12.623Z,1.73
2019-03-15T20:29:40.018Z,2.10
2019-03-15T20:32:07.315Z,1.60
2019-03-15T20:34:34.641Z,1.30
2019-03-15T20:37:02.175Z,1.47
2019-03-15T20:39:29.473Z,1.70
2019-03-15T20:41:57.358Z,1.77
2019-03-15T20:44:28.816Z,1.50
2019-03-15T20:46:54.024Z,1.73
2019-03-15T20:49:21.606Z,1.40
2019-03-15T20:51:48.938Z,1.57
2019-03-15T20:54:16.552Z,1.70
2019-03-15T20:56:44.396Z,1.53
2019-03-15T20:59:12.288Z,1.50
2019-03-15T21:01:39.912Z,2.10
2019-03-15T21:04:07.353Z,1.70
2019-03-15T21:06:35.193Z,1.43
2019-03-15T21:09:03.832Z,1.30
2019-03-15T21:11:32.420Z,1.70
2019-03-15T21:13:59.472Z,1.40
2019-03-15T21:16:27.012Z,1.40
2019-03-15T21:18:54.230Z,1.60
2019-03-15T21:21:22.292Z,1.50
2019-03-15T21:23:50.030Z,1.30
2019-03-15T21:26:17.544Z,1.50
2019-03-15T21:28:44.890Z,5.67
2019-03-15T21:31:12.579Z,2.37
2019-03-15T21:33:39.641Z,1.60
2019-03-15T21:36:06.601Z,1.67
2019-03-15T21:38:47.327Z,1.50
2019-03-15T21:41:03.392Z,1.47
2019-03-15T21:43:30.840Z,1.60
2019-03-15T21:45:58.053Z,1.30
2019-03-15T21:48:25.348Z,1.37
2019-03-15T21:50:54.001Z,1.53
2019-03-15T21:53:21.483Z,1.50
2019-03-15T21:55:48.893Z,1.30
2019-03-15T21:58:16.789Z,1.40
2019-03-15T22:00:43.964Z,1.40
2019-03-15T22:03:11.383Z,1.67
2019-03-15T22:05:38.725Z,1.70
2019-03-15T22:08:05.669Z,1.50
2019-03-15T22:10:32.869Z,1.63
2019-03-15T22:13:00.528Z,1.87
2019-03-15T22:15:27.472Z,1.70
2019-03-15T22:17:54.705Z,1.77
2019-03-15T22:20:22.292Z,1.43
2019-03-15T22:22:49.742Z,1.70
2019-03-15T22:25:16.742Z,1.60
2019-03-15T22:27:44.101Z,1.50
2019-03-15T22:30:11.505Z,1.60
2019-03-15T22:32:39.120Z,1.70
2019-03-15T22:35:06.645Z,1.50
2019-03-15T22:37:34.114Z,1.80
2019-03-15T22:40:01.759Z,2.70
2019-03-15T22:42:28.949Z,1.60
2019-03-15T22:44:56.013Z,1.60
2019-03-15T22:47:23.413Z,2.00
2019-03-15T22:49:50.348Z,1.83
2019-03-15T22:52:17.608Z,1.70
2019-03-15T22:54:44.908Z,2.63
2019-03-15T22:57:11.999Z,2.30
2019-03-15T22:59:39.544Z,1.80
2019-03-15T23:02:07.482Z,2.57
2019-03-15T23:04:34.960Z,1.90
2019-03-15T23:07:02.157Z,2.07
2019-03-15T23:09:29.123Z,1.97
2019-03-15T23:11:56.333Z,1.90
2019-03-15T23:14:25.733Z,1.77
2019-03-15T23:16:52.861Z,1.80
2019-03-15T23:19:20.711Z,1.60
2019-03-15T23:21:48.421Z,1.70
2019-03-15T23:24:15.794Z,1.83
2019-03-15T23:26:43.233Z,1.60
2019-03-15T23:29:10.241Z,2.33
2019-03-15T23:31:43.423Z,1.67
2019-03-15T23:34:06.711Z,1.30
2019-03-15T23:36:34.037Z,1.40
2019-03-15T23:39:01.395Z,1.50
2019-03-15T23:41:29.061Z,8.00
2019-03-15T23:43:56.596Z,1.50
2019-03-15T23:46:23.849Z,1.50
2019-03-15T23:48:51.161Z,2.20
2019-03-15T23:51:18.996Z,1.67
2019-03-15T23:53:46.297Z,1.70
2019-03-15T23:56:13.821Z,1.70
2019-03-15T23:58:41.108Z,2.17
